Time,TemperatureF,DewpointF,PressureIn,WindDirection,WindDirectionDegrees,WindSpeedMPH,WindSpeedGustMPH,Humidity,HourlyPrecipIn,Conditions,Clouds,dailyrainin,SoftwareType,DateUTC
2013-04-20 00:01:00,46.2,44.0,30.06,ENE,60,0.0,0.0,92,0.00,,SKC,0.00,VWS V13.01,2013-04-20 05:01:00,
2013-04-20 00:06:00,46.2,44.0,30.06,ENE,60,0.0,0.0,92,0.00,,SKC,0.00,VWS V13.01,2013-04-20 05:06:00,
2013-04-20 00:10:00,46.0,43.8,30.06,ENE,60,0.0,0.0,92,0.00,,SKC,0.00,VWS V13.01,2013-04-20 05:10:00,
2013-04-20 00:15:00,45.9,43.7,30.06,ENE,60,0.0,0.0,92,0.00,,SKC,0.00,VWS V13.01,2013-04-20 05:15:00,
2013-04-20 00:20:00,45.7,43.5,30.06,ENE,60,0.0,0.0,92,0.00,,SKC,0.00,VWS V13.01,2013-04-20 05:20:00,
2013-04-20 00:25:00,45.7,43.5,30.06,ENE,60,0.0,0.0,92,0.00,,SKC,0.00,VWS V13.01,2013-04-20 05:25:00,
2013-04-20 00:30:00,45.5,43.3,30.06,ENE,60,0.0,0.0,92,0.00,,SKC,0.00,VWS V13.01,2013-04-20 05:30:00,
2013-04-20 00:35:00,45.7,43.8,30.06,ENE,60,0.0,0.0,93,0.00,,SKC,0.00,VWS V13.01,2013-04-20 05:35:00,
2013-04-20 00:40:00,45.7,43.8,30.06,ENE,60,0.0,0.0,93,0.00,,SKC,0.00,VWS V13.01,2013-04-20 05:40:00,
2013-04-20 00:45:00,45.5,43.3,30.06,ENE,60,0.0,0.0,92,0.00,,SKC,0.00,VWS V13.01,2013-04-20 05:45:00,
2013-04-20 00:50:00,45.5,43.3,30.06,ENE,60,0.0,0.0,92,0.00,,SKC,0.00,VWS V13.01,2013-04-20 05:50:00,
2013-04-20 00:55:00,45.5,43.3,30.06,ENE,60,0.0,0.0,92,0.00,,SKC,0.00,VWS V13.01,2013-04-20 05:55:00,
2013-04-20 01:00:00,45.3,43.1,30.06,ENE,60,0.0,0.0,92,0.00,,SKC,0.00,VWS V13.01,2013-04-20 06:00:00,
2013-04-20 01:05:00,45.3,43.1,30.06,ENE,60,0.0,0.0,92,0.00,,SKC,0.00,VWS V13.01,2013-04-20 06:05:00,
2013-04-20 01:10:00,45.1,43.0,30.06,ENE,60,0.0,0.0,92,0.00,,SKC,0.00,VWS V13.01,2013-04-20 06:10:00,
2013-04-20 01:15:00,45.1,43.2,30.06,ENE,60,0.0,0.0,93,0.00,,SKC,0.00,VWS V13.01,2013-04-20 06:15:00,
2013-04-20 01:20:00,45.1,43.2,30.06,ENE,60,0.0,0.0,93,0.00,,SKC,0.00,VWS V13.01,2013-04-20 06:20:00,
2013-04-20 01:25:00,45.0,42.8,30.06,ENE,60,0.0,0.0,92,0.00,,SKC,0.00,VWS V13.01,2013-04-20 06:25:00,
2013-04-20 01:30:00,45.0,42.8,30.06,ENE,60,0.0,0.0,92,0.00,,SKC,0.00,VWS V13.01,2013-04-20 06:30:00,
2013-04-20 01:35:00,44.8,42.6,30.06,ENE,60,0.0,0.0,92,0.00,,SKC,0.00,VWS V13.01,2013-04-20 06:35:00,
2013-04-20 01:40:00,44.4,42.2,30.06,ENE,60,0.0,0.0,92,0.00,,SKC,0.00,VWS V13.01,2013-04-20 06:40:00,
2013-04-20 01:45:00,44.4,42.5,30.06,ENE,60,0.0,0.0,93,0.00,,SKC,0.00,VWS V13.01,2013-04-20 06:45:00,
2013-04-20 01:50:00,44.4,42.5,30.06,ENE,60,0.0,0.0,93,0.00,,SKC,0.00,VWS V13.01,2013-04-20 06:50:00,
2013-04-20 01:55:00,44.2,42.1,30.06,ENE,60,0.0,0.0,92,0.00,,SKC,0.00,VWS V13.01,2013-04-20 06:55:00,
2013-04-20 02:00:00,44.2,42.3,30.06,ENE,60,0.0,0.0,93,0.00,,SKC,0.00,VWS V13.01,2013-04-20 07:00:00,
2013-04-20 02:05:00,44.2,42.3,30.06,ENE,60,0.0,0.0,93,0.00,,SKC,0.00,VWS V13.01,2013-04-20 07:05:00,
2013-04-20 02:10:00,44.2,42.3,30.06,ENE,60,0.0,0.0,93,0.00,,SKC,0.00,VWS V13.01,2013-04-20 07:10:00,
2013-04-20 02:15:00,44.1,41.9,30.06,ENE,60,0.0,0.0,92,0.00,,SKC,0.00,VWS V13.01,2013-04-20 07:15:00,
2013-04-20 02:20:00,43.9,41.7,30.06,ENE,60,0.0,0.0,92,0.00,,SKC,0.00,VWS V13.01,2013-04-20 07:20:00,
2013-04-20 02:25:00,43.7,41.5,30.06,ENE,60,0.0,0.0,92,0.00,,SKC,0.00,VWS V13.01,2013-04-20 07:25:00,
2013-04-20 02:30:00,43.7,41.8,30.06,ENE,60,0.0,0.0,93,0.00,,SKC,0.00,VWS V13.01,2013-04-20 07:30:00,
2013-04-20 02:35:00,43.9,42.3,30.06,ENE,60,0.0,0.0,94,0.00,,SKC,0.00,VWS V13.01,2013-04-20 07:35:00,
2013-04-20 02:40:00,43.9,42.0,30.06,ENE,60,0.0,0.0,93,0.00,,SKC,0.00,VWS V13.01,2013-04-20 07:40:00,
2013-04-20 02:45:00,43.9,42.0,30.06,ENE,60,0.0,0.0,93,0.00,,SKC,0.00,VWS V13.01,2013-04-20 07:45:00,
2013-04-20 02:50:00,43.7,41.5,30.06,ENE,60,0.0,0.0,92,0.00,,SKC,0.00,VWS V13.01,2013-04-20 07:50:00,
2013-04-20 02:55:00,43.7,41.8,30.06,ENE,60,0.0,0.0,93,0.00,,SKC,0.00,VWS V13.01,2013-04-20 07:55:00,
2013-04-20 03:00:00,43.7,41.5,30.06,ENE,60,0.0,0.0,92,0.00,,SKC,0.00,VWS V13.01,2013-04-20 08:00:00,
2013-04-20 03:05:00,43.5,41.3,30.06,ENE,60,0.0,0.0,92,0.00,,SKC,0.00,VWS V13.01,2013-04-20 08:05:00,
2013-04-20 03:10:00,43.5,41.3,30.06,ENE,60,0.0,0.0,92,0.00,,SKC,0.00,VWS V13.01,2013-04-20 08:10:00,
2013-04-20 03:15:00,43.3,40.9,30.06,ENE,60,0.0,0.0,91,0.00,,SKC,0.00,VWS V13.01,2013-04-20 08:15:00,
2013-04-20 03:20:00,43.3,40.9,30.06,ENE,60,0.0,0.0,91,0.00,,SKC,0.00,VWS V13.01,2013-04-20 08:20:00,
2013-04-20 03:25:00,43.2,40.7,30.06,ENE,60,0.0,0.0,91,0.00,,SKC,0.00,VWS V13.01,2013-04-20 08:25:00,
2013-04-20 03:30:00,43.2,41.0,30.06,ENE,60,0.0,0.0,92,0.00,,SKC,0.00,VWS V13.01,2013-04-20 08:30:00,
2013-04-20 03:35:00,43.2,41.0,30.06,ENE,60,0.0,0.0,92,0.00,,SKC,0.00,VWS V13.01,2013-04-20 08:35:00,
2013-04-20 03:40:00,43.2,40.7,30.06,ENE,60,0.0,0.0,91,0.00,,SKC,0.00,VWS V13.01,2013-04-20 08:40:00,
2013-04-20 03:45:00,43.0,40.2,30.06,ENE,60,0.0,0.0,90,0.00,,SKC,0.00,VWS V13.01,2013-04-20 08:45:00,
2013-04-20 03:50:00,42.8,40.4,30.06,ENE,60,0.0,0.0,91,0.00,,SKC,0.00,VWS V13.01,2013-04-20 08:50:00,
2013-04-20 03:55:00,42.6,40.2,30.06,ENE,60,0.0,0.0,91,0.00,,SKC,0.00,VWS V13.01,2013-04-20 08:55:00,
2013-04-20 04:00:00,42.3,39.8,30.06,ENE,60,0.0,0.0,91,0.00,,SKC,0.00,VWS V13.01,2013-04-20 09:00:00,
2013-04-20 04:05:00,42.3,40.4,30.06,ENE,60,0.0,0.0,93,0.00,,SKC,0.00,VWS V13.01,2013-04-20 09:05:00,
2013-04-20 04:10:00,42.3,40.1,30.06,ENE,60,0.0,0.0,92,0.00,,SKC,0.00,VWS V13.01,2013-04-20 09:10:00,
2013-04-20 04:15:00,42.3,40.4,30.06,ENE,60,0.0,0.0,93,0.00,,SKC,0.00,VWS V13.01,2013-04-20 09:15:00,
2013-04-20 04:20:00,42.3,40.1,30.06,ENE,60,0.0,0.0,92,0.00,,SKC,0.00,VWS V13.01,2013-04-20 09:20:00,
2013-04-20 04:25:00,42.1,39.9,30.06,ENE,60,0.0,0.0,92,0.00,,SKC,0.00,VWS V13.01,2013-04-20 09:25:00,
2013-04-20 04:30:00,42.1,39.9,30.06,ENE,60,0.0,0.0,92,0.00,,SKC,0.00,VWS V13.01,2013-04-20 09:30:00,
2013-04-20 04:35:00,42.1,39.9,30.06,ENE,60,0.0,0.0,92,0.00,,SKC,0.00,VWS V13.01,2013-04-20 09:35:00,
2013-04-20 04:40:00,42.1,39.9,30.06,ENE,60,0.0,0.0,92,0.00,,SKC,0.00,VWS V13.01,2013-04-20 09:40:00,
2013-04-20 04:45:00,41.7,39.6,30.06,ENE,60,0.0,0.0,92,0.00,,SKC,0.00,VWS V13.01,2013-04-20 09:45:00,
2013-04-20 04:50:00,41.7,39.6,30.06,ENE,60,0.0,0.0,92,0.00,,SKC,0.00,VWS V13.01,2013-04-20 09:50:00,
2013-04-20 04:55:00,41.5,39.4,30.06,ENE,60,0.0,0.0,92,0.00,,SKC,0.00,VWS V13.01,2013-04-20 09:55:00,
2013-04-20 05:00:00,41.5,39.7,30.06,ENE,60,0.0,0.0,93,0.00,,SKC,0.00,VWS V13.01,2013-04-20 10:00:00,
2013-04-20 05:05:00,41.7,39.8,30.06,ENE,60,0.0,0.0,93,0.00,,SKC,0.00,VWS V13.01,2013-04-20 10:05:00,
2013-04-20 05:10:00,41.7,39.8,30.06,ENE,60,0.0,0.0,93,0.00,,SKC,0.00,VWS V13.01,2013-04-20 10:10:00,
2013-04-20 05:15:00,41.7,39.8,30.06,ENE,60,0.0,0.0,93,0.00,,SKC,0.00,VWS V13.01,2013-04-20 10:15:00,
2013-04-20 05:20:00,41.5,39.7,30.06,ENE,60,0.0,0.0,93,0.00,,SKC,0.00,VWS V13.01,2013-04-20 10:20:00,
2013-04-20 05:25:00,41.5,39.7,30.06,ENE,60,0.0,0.0,93,0.00,,SKC,0.00,VWS V13.01,2013-04-20 10:25:00,
2013-04-20 05:30:00,41.4,39.5,30.06,ENE,60,0.0,0.0,93,0.00,,SKC,0.00,VWS V13.01,2013-04-20 10:30:00,
2013-04-20 05:35:00,41.4,39.5,30.06,ENE,60,0.0,0.0,93,0.00,,SKC,0.00,VWS V13.01,2013-04-20 10:35:00,
2013-04-20 05:40:00,41.4,39.5,30.06,ENE,60,0.0,0.0,93,0.00,,SKC,0.00,VWS V13.01,2013-04-20 10:40:00,
2013-04-20 05:45:00,41.2,39.3,30.06,ENE,60,0.0,0.0,93,0.00,,SKC,0.00,VWS V13.01,2013-04-20 10:45:00,
2013-04-20 05:50:00,41.2,39.3,30.06,ENE,60,0.0,0.0,93,0.00,,SKC,0.00,VWS V13.01,2013-04-20 10:50:00,
2013-04-20 05:55:00,41.2,39.3,30.06,ENE,60,0.0,0.0,93,0.00,,SKC,0.00,VWS V13.01,2013-04-20 10:55:00,
2013-04-20 06:00:00,41.4,39.8,30.06,ENE,60,0.0,0.0,94,0.00,,SKC,0.00,VWS V13.01,2013-04-20 11:00:00,
2013-04-20 06:05:00,41.5,40.0,30.06,ENE,60,0.0,0.0,94,0.00,,SKC,0.00,VWS V13.01,2013-04-20 11:05:00,
2013-04-20 06:10:00,41.5,40.0,30.06,ENE,60,0.0,0.0,94,0.00,,SKC,0.00,VWS V13.01,2013-04-20 11:10:00,
2013-04-20 06:15:00,41.4,39.8,30.06,ENE,60,0.0,0.0,94,0.00,,SKC,0.00,VWS V13.01,2013-04-20 11:15:00,
2013-04-20 06:20:00,41.0,39.4,30.09,ENE,60,0.0,0.0,94,0.00,,SKC,0.00,VWS V13.01,2013-04-20 11:20:00,
2013-04-20 06:25:00,41.0,39.4,30.09,ENE,60,0.0,0.0,94,0.00,,SKC,0.00,VWS V13.01,2013-04-20 11:25:00,
2013-04-20 06:30:00,41.2,39.9,30.09,ENE,60,0.0,0.0,95,0.00,,SKC,0.00,VWS V13.01,2013-04-20 11:30:00,
2013-04-20 06:35:00,41.4,40.0,30.09,ENE,60,0.0,0.0,95,0.00,,SKC,0.00,VWS V13.01,2013-04-20 11:35:00,
2013-04-20 06:40:00,41.5,40.2,30.09,ENE,60,0.0,0.0,95,0.00,,SKC,0.00,VWS V13.01,2013-04-20 11:40:00,
2013-04-20 06:45:00,41.4,39.8,30.09,ENE,60,0.0,0.0,94,0.00,,SKC,0.00,VWS V13.01,2013-04-20 11:45:00,
2013-04-20 06:49:00,41.5,40.2,30.09,ENE,60,0.0,0.0,95,0.00,,SKC,0.00,VWS V13.01,2013-04-20 11:49:00,
2013-04-20 06:54:00,41.7,40.1,30.09,ENE,60,0.0,0.0,94,0.00,,SKC,0.00,VWS V13.01,2013-04-20 11:54:00,
2013-04-20 06:59:00,41.9,40.3,30.09,ENE,60,0.0,0.0,94,0.00,,SKC,0.00,VWS V13.01,2013-04-20 11:59:00,
2013-04-20 07:04:00,42.1,40.8,30.09,ENE,60,0.0,0.0,95,0.00,,SKC,0.00,VWS V13.01,2013-04-20 12:04:00,
2013-04-20 07:09:00,42.4,41.1,30.09,ENE,60,0.0,0.0,95,0.00,,SKC,0.00,VWS V13.01,2013-04-20 12:09:00,
2013-04-20 07:14:00,42.8,41.2,30.09,ENE,60,0.0,0.0,94,0.00,,SKC,0.00,VWS V13.01,2013-04-20 12:14:00,
2013-04-20 07:19:00,43.3,42.3,30.09,ENE,60,0.0,0.0,96,0.00,,SKC,0.00,VWS V13.01,2013-04-20 12:19:00,
2013-04-20 07:24:00,43.9,42.5,30.09,ENE,60,0.0,0.0,95,0.00,,SKC,0.00,VWS V13.01,2013-04-20 12:24:00,
2013-04-20 07:29:00,44.4,43.1,30.09,ENE,60,0.0,0.0,95,0.00,,SKC,0.00,VWS V13.01,2013-04-20 12:29:00,
2013-04-20 07:34:00,45.0,43.6,30.12,ENE,60,0.0,0.0,95,0.00,,SKC,0.00,VWS V13.01,2013-04-20 12:34:00,
2013-04-20 07:39:00,45.5,44.2,30.12,ENE,60,0.0,0.0,95,0.00,,SKC,0.00,VWS V13.01,2013-04-20 12:39:00,
2013-04-20 07:44:00,46.0,43.8,30.12,ENE,60,0.0,0.0,92,0.00,,SKC,0.00,VWS V13.01,2013-04-20 12:44:00,
2013-04-20 07:49:00,46.8,42.8,30.12,ENE,60,0.0,0.0,86,0.00,,SKC,0.00,VWS V13.01,2013-04-20 12:49:00,
2013-04-20 07:54:00,47.5,44.1,30.12,ENE,60,0.0,0.0,88,0.00,,SKC,0.00,VWS V13.01,2013-04-20 12:54:00,
2013-04-20 07:59:00,48.0,42.8,30.12,ENE,60,0.0,0.0,82,0.00,,SKC,0.00,VWS V13.01,2013-04-20 12:59:00,
2013-04-20 08:04:00,49.1,44.2,30.12,ENE,60,0.0,0.0,83,0.00,,SKC,0.00,VWS V13.01,2013-04-20 13:04:00,
2013-04-20 08:09:00,49.8,44.2,30.12,ENE,60,0.0,0.0,81,0.00,,SKC,0.00,VWS V13.01,2013-04-20 13:09:00,
2013-04-20 08:14:00,50.4,42.8,30.12,ENE,60,0.0,0.0,75,0.00,,SKC,0.00,VWS V13.01,2013-04-20 13:14:00,
2013-04-20 08:19:00,51.1,44.5,30.12,ENE,60,0.0,0.0,78,0.00,,SKC,0.00,VWS V13.01,2013-04-20 13:19:00,
2013-04-20 08:24:00,51.8,43.4,30.12,ENE,60,0.0,0.0,73,0.00,,SKC,0.00,VWS V13.01,2013-04-20 13:24:00,
2013-04-20 08:29:00,52.5,44.5,30.12,ENE,60,0.0,0.0,74,0.00,,SKC,0.00,VWS V13.01,2013-04-20 13:29:00,
2013-04-20 08:34:00,53.4,45.3,30.12,ENE,60,0.0,0.0,74,0.00,,SKC,0.00,VWS V13.01,2013-04-20 13:34:00,
2013-04-20 08:39:00,54.1,44.6,30.12,ENE,60,0.0,0.0,70,0.00,,SKC,0.00,VWS V13.01,2013-04-20 13:39:00,
2013-04-20 08:44:00,54.5,44.9,30.12,ENE,60,0.0,0.0,70,0.00,,SKC,0.00,VWS V13.01,2013-04-20 13:44:00,
2013-04-20 08:49:00,55.2,45.2,30.12,ENE,60,0.0,0.0,69,0.00,,SKC,0.00,VWS V13.01,2013-04-20 13:49:00,
2013-04-20 08:54:00,56.1,46.1,30.12,ENE,60,0.0,0.0,69,0.00,,SKC,0.00,VWS V13.01,2013-04-20 13:54:00,
2013-04-20 08:59:00,56.7,45.4,30.12,ENE,60,0.0,0.0,66,0.00,,SKC,0.00,VWS V13.01,2013-04-20 13:59:00,
2013-04-20 09:04:00,57.0,45.8,30.12,ENE,60,0.0,0.0,66,0.00,,SKC,0.00,VWS V13.01,2013-04-20 14:04:00,
2013-04-20 09:09:00,57.6,46.3,30.12,ENE,60,0.0,0.0,66,0.00,,SKC,0.00,VWS V13.01,2013-04-20 14:09:00,
2013-04-20 09:14:00,58.1,46.8,30.12,ENE,60,0.0,0.0,66,0.00,,SKC,0.00,VWS V13.01,2013-04-20 14:14:00,
2013-04-20 09:19:00,57.9,46.6,30.12,ENE,60,0.0,0.0,66,0.00,,SKC,0.00,VWS V13.01,2013-04-20 14:19:00,
2013-04-20 09:24:00,58.3,47.0,30.12,ENE,60,0.0,0.0,66,0.00,,SKC,0.00,VWS V13.01,2013-04-20 14:24:00,
2013-04-20 09:29:00,59.2,47.8,30.12,ENE,60,0.0,0.0,66,0.00,,SKC,0.00,VWS V13.01,2013-04-20 14:29:00,
2013-04-20 09:34:00,59.7,48.4,30.12,ENE,60,0.0,0.0,66,0.00,,SKC,0.00,VWS V13.01,2013-04-20 14:34:00,
2013-04-20 09:39:00,60.4,49.0,30.12,ENE,60,0.0,0.0,66,0.00,,SKC,0.00,VWS V13.01,2013-04-20 14:39:00,
2013-04-20 09:44:00,60.4,49.0,30.12,ENE,60,0.0,0.0,66,0.00,,SKC,0.00,VWS V13.01,2013-04-20 14:44:00,
2013-04-20 09:49:00,60.3,48.9,30.12,ENE,60,0.0,0.0,66,0.00,,SKC,0.00,VWS V13.01,2013-04-20 14:49:00,
2013-04-20 09:54:00,61.0,49.2,30.12,ENE,60,0.0,0.0,65,0.00,,SKC,0.00,VWS V13.01,2013-04-20 14:54:00,
2013-04-20 09:59:00,61.7,49.8,30.12,ENE,60,0.0,0.0,65,0.00,,SKC,0.00,VWS V13.01,2013-04-20 14:59:00,
2013-04-20 10:04:00,61.9,50.0,30.15,ENE,60,0.0,0.0,65,0.00,,SKC,0.00,VWS V13.01,2013-04-20 15:04:00,
2013-04-20 10:09:00,62.2,50.3,30.15,ENE,60,0.0,0.0,65,0.00,,SKC,0.00,VWS V13.01,2013-04-20 15:09:00,
2013-04-20 10:14:00,63.3,51.4,30.15,ENE,60,0.0,0.0,65,0.00,,SKC,0.00,VWS V13.01,2013-04-20 15:14:00,
2013-04-20 10:19:00,63.7,51.7,30.15,ENE,60,0.0,0.0,65,0.00,,SKC,0.00,VWS V13.01,2013-04-20 15:19:00,
2013-04-20 10:24:00,63.9,51.9,30.15,ENE,60,0.0,0.0,65,0.00,,SKC,0.00,VWS V13.01,2013-04-20 15:24:00,
2013-04-20 10:29:00,64.2,52.2,30.15,ENE,60,0.0,0.0,65,0.00,,SKC,0.00,VWS V13.01,2013-04-20 15:29:00,
2013-04-20 10:34:00,64.8,52.3,30.15,ENE,60,0.0,0.0,64,0.00,,SKC,0.00,VWS V13.01,2013-04-20 15:34:00,
2013-04-20 10:39:00,65.1,52.7,30.15,ENE,60,0.0,0.0,64,0.00,,SKC,0.00,VWS V13.01,2013-04-20 15:39:00,
2013-04-20 10:44:00,65.8,53.3,30.15,ENE,60,0.0,0.0,64,0.00,,SKC,0.00,VWS V13.01,2013-04-20 15:44:00,
2013-04-20 10:49:00,66.4,53.8,30.15,ENE,60,0.0,0.0,64,0.00,,SKC,0.00,VWS V13.01,2013-04-20 15:49:00,
2013-04-20 10:54:00,66.7,54.2,30.15,ENE,60,0.0,0.0,64,0.00,,SKC,0.00,VWS V13.01,2013-04-20 15:54:00,
2013-04-20 10:59:00,66.6,54.0,30.15,ENE,60,0.0,0.0,64,0.00,,SKC,0.00,VWS V13.01,2013-04-20 15:59:00,
2013-04-20 11:04:00,65.8,53.3,30.12,ENE,60,0.0,0.0,64,0.00,,SKC,0.00,VWS V13.01,2013-04-20 16:04:00,
2013-04-20 11:09:00,66.4,53.8,30.12,ENE,60,0.0,0.0,64,0.00,,SKC,0.00,VWS V13.01,2013-04-20 16:09:00,
2013-04-20 11:14:00,67.3,54.7,30.12,ENE,60,0.0,0.0,64,0.00,,SKC,0.00,VWS V13.01,2013-04-20 16:14:00,
2013-04-20 11:19:00,66.9,54.4,30.12,ENE,60,0.0,0.0,64,0.00,,SKC,0.00,VWS V13.01,2013-04-20 16:19:00,
2013-04-20 11:24:00,67.1,54.5,30.12,ENE,60,0.0,0.0,64,0.00,,SKC,0.00,VWS V13.01,2013-04-20 16:24:00,
2013-04-20 11:29:00,66.6,54.0,30.12,ENE,60,0.0,0.0,64,0.00,,SKC,0.00,VWS V13.01,2013-04-20 16:29:00,
2013-04-20 11:34:00,67.3,54.7,30.12,ENE,60,0.0,0.0,64,0.00,,SKC,0.00,VWS V13.01,2013-04-20 16:34:00,
2013-04-20 11:39:00,67.5,54.9,30.12,ENE,60,0.0,0.0,64,0.00,,SKC,0.00,VWS V13.01,2013-04-20 16:39:00,
2013-04-20 11:44:00,67.6,55.0,30.12,ENE,60,0.0,0.0,64,0.00,,SKC,0.00,VWS V13.01,2013-04-20 16:44:00,
2013-04-20 11:49:00,67.6,55.0,30.12,ENE,60,0.0,0.0,64,0.00,,SKC,0.00,VWS V13.01,2013-04-20 16:49:00,
2013-04-20 11:54:00,68.0,55.4,30.12,ENE,60,0.0,0.0,64,0.00,,SKC,0.00,VWS V13.01,2013-04-20 16:54:00,
2013-04-20 11:59:00,68.2,55.5,30.12,ENE,60,0.0,0.0,64,0.00,,SKC,0.00,VWS V13.01,2013-04-20 16:59:00,
2013-04-20 12:04:00,68.2,55.5,30.09,ENE,60,0.0,0.0,64,0.00,,SKC,0.00,VWS V13.01,2013-04-20 17:04:00,
2013-04-20 12:09:00,68.0,55.4,30.09,ENE,60,0.0,0.0,64,0.00,,SKC,0.00,VWS V13.01,2013-04-20 17:09:00,
2013-04-20 12:14:00,68.7,56.1,30.09,ENE,60,0.0,0.0,64,0.00,,SKC,0.00,VWS V13.01,2013-04-20 17:14:00,
2013-04-20 12:19:00,69.3,56.6,30.09,ENE,60,0.0,0.0,64,0.00,,SKC,0.00,VWS V13.01,2013-04-20 17:19:00,
2013-04-20 12:24:00,69.6,56.9,30.09,ENE,60,0.0,0.0,64,0.00,,SKC,0.00,VWS V13.01,2013-04-20 17:24:00,
2013-04-20 12:29:00,68.9,56.2,30.09,ENE,60,0.0,0.0,64,0.00,,SKC,0.00,VWS V13.01,2013-04-20 17:29:00,
2013-04-20 12:34:00,68.9,56.2,30.09,ENE,60,0.0,0.0,64,0.00,,SKC,0.00,VWS V13.01,2013-04-20 17:34:00,
2013-04-20 12:38:00,69.3,56.6,30.09,ENE,60,0.0,0.0,64,0.00,,SKC,0.00,VWS V13.01,2013-04-20 17:38:00,
2013-04-20 12:43:00,69.8,56.7,30.09,ENE,60,0.0,0.0,63,0.00,,SKC,0.00,VWS V13.01,2013-04-20 17:43:00,
2013-04-20 12:48:00,70.2,57.0,30.09,ENE,60,0.0,0.0,63,0.00,,SKC,0.00,VWS V13.01,2013-04-20 17:48:00,
2013-04-20 12:53:00,69.1,56.4,30.09,ENE,60,0.0,0.0,64,0.00,,SKC,0.00,VWS V13.01,2013-04-20 17:53:00,
2013-04-20 12:58:00,69.4,56.8,30.09,ENE,60,0.0,0.0,64,0.00,,SKC,0.00,VWS V13.01,2013-04-20 17:58:00,
2013-04-20 13:03:00,69.4,56.8,30.06,ENE,60,0.0,0.0,64,0.00,,SKC,0.00,VWS V13.01,2013-04-20 18:03:00,
2013-04-20 13:08:00,70.5,57.3,30.06,ENE,60,0.0,0.0,63,0.00,,SKC,0.00,VWS V13.01,2013-04-20 18:08:00,
2013-04-20 13:13:00,71.1,57.8,30.06,ENE,60,0.0,0.0,63,0.00,,SKC,0.00,VWS V13.01,2013-04-20 18:13:00,
2013-04-20 13:18:00,71.2,58.0,30.06,ENE,60,0.0,0.0,63,0.00,,SKC,0.00,VWS V13.01,2013-04-20 18:18:00,
2013-04-20 13:23:00,70.7,57.5,30.06,ENE,60,0.0,0.0,63,0.00,,SKC,0.00,VWS V13.01,2013-04-20 18:23:00,
2013-04-20 13:28:00,71.2,58.0,30.06,ENE,60,0.0,0.0,63,0.00,,SKC,0.00,VWS V13.01,2013-04-20 18:28:00,
2013-04-20 13:33:00,71.2,58.0,30.06,ENE,60,0.0,0.0,63,0.00,,SKC,0.00,VWS V13.01,2013-04-20 18:33:00,
2013-04-20 13:38:00,71.1,57.8,30.06,ENE,60,0.0,0.0,63,0.00,,SKC,0.00,VWS V13.01,2013-04-20 18:38:00,
2013-04-20 13:43:00,71.6,58.3,30.06,ENE,60,0.0,0.0,63,0.00,,SKC,0.00,VWS V13.01,2013-04-20 18:43:00,
2013-04-20 13:48:00,72.0,58.7,30.06,ENE,60,0.0,0.0,63,0.00,,SKC,0.00,VWS V13.01,2013-04-20 18:48:00,
2013-04-20 13:53:00,71.8,58.5,30.06,ENE,60,0.0,0.0,63,0.00,,SKC,0.00,VWS V13.01,2013-04-20 18:53:00,
2013-04-20 13:58:00,71.6,58.3,30.06,ENE,60,0.0,0.0,63,0.00,,SKC,0.00,VWS V13.01,2013-04-20 18:58:00,
2013-04-20 14:03:00,71.2,58.0,30.06,ENE,60,0.0,0.0,63,0.00,,SKC,0.00,VWS V13.01,2013-04-20 19:03:00,
2013-04-20 14:08:00,70.9,57.7,30.06,ENE,60,0.0,0.0,63,0.00,,SKC,0.00,VWS V13.01,2013-04-20 19:08:00,
2013-04-20 14:13:00,70.9,57.7,30.06,ENE,60,0.0,0.0,63,0.00,,SKC,0.00,VWS V13.01,2013-04-20 19:13:00,
2013-04-20 14:18:00,70.7,57.5,30.06,ENE,60,0.0,0.0,63,0.00,,SKC,0.00,VWS V13.01,2013-04-20 19:18:00,
2013-04-20 14:23:00,71.1,57.8,30.06,ENE,60,0.0,0.0,63,0.00,,SKC,0.00,VWS V13.01,2013-04-20 19:23:00,
2013-04-20 14:28:00,72.1,58.9,30.06,ENE,60,0.0,0.0,63,0.00,,SKC,0.00,VWS V13.01,2013-04-20 19:28:00,
2013-04-20 14:33:00,72.3,59.0,30.03,ENE,60,0.0,0.0,63,0.00,,SKC,0.00,VWS V13.01,2013-04-20 19:33:00,
2013-04-20 14:38:00,72.0,58.7,30.03,ENE,60,0.0,0.0,63,0.00,,SKC,0.00,VWS V13.01,2013-04-20 19:38:00,
2013-04-20 14:43:00,72.1,58.9,30.03,ENE,60,0.0,0.0,63,0.00,,SKC,0.00,VWS V13.01,2013-04-20 19:43:00,
2013-04-20 14:48:00,72.5,57.8,30.03,ENE,60,0.0,0.0,60,0.00,,SKC,0.00,VWS V13.01,2013-04-20 19:48:00,
2013-04-20 14:53:00,72.7,58.0,30.03,ENE,60,0.0,0.0,60,0.00,,SKC,0.00,VWS V13.01,2013-04-20 19:53:00,
2013-04-20 14:58:00,72.7,58.0,30.03,ENE,60,0.0,0.0,60,0.00,,SKC,0.00,VWS V13.01,2013-04-20 19:58:00,
2013-04-20 15:03:00,72.1,57.5,30.03,ENE,60,0.0,0.0,60,0.00,,SKC,0.00,VWS V13.01,2013-04-20 20:03:00,
2013-04-20 15:08:00,72.1,57.5,30.03,ENE,60,0.0,0.0,60,0.00,,SKC,0.00,VWS V13.01,2013-04-20 20:08:00,
2013-04-20 15:13:00,72.5,57.8,30.03,ENE,60,0.0,0.0,60,0.00,,SKC,0.00,VWS V13.01,2013-04-20 20:13:00,
2013-04-20 15:18:00,73.0,58.3,30.03,ENE,60,0.0,0.0,60,0.00,,SKC,0.00,VWS V13.01,2013-04-20 20:18:00,
2013-04-20 15:23:00,73.2,58.5,30.03,ENE,60,0.0,0.0,60,0.00,,SKC,0.00,VWS V13.01,2013-04-20 20:23:00,
2013-04-20 15:28:00,72.9,58.2,30.03,ENE,60,0.0,0.0,60,0.00,,SKC,0.00,VWS V13.01,2013-04-20 20:28:00,
2013-04-20 15:33:00,73.0,58.3,30.00,ENE,60,0.0,0.0,60,0.00,,SKC,0.00,VWS V13.01,2013-04-20 20:33:00,
2013-04-20 15:38:00,73.0,58.3,30.00,ENE,60,0.0,0.0,60,0.00,,SKC,0.00,VWS V13.01,2013-04-20 20:38:00,
2013-04-20 15:43:00,73.2,58.5,30.00,ENE,60,0.0,0.0,60,0.00,,SKC,0.00,VWS V13.01,2013-04-20 20:43:00,
2013-04-20 15:48:00,73.0,58.3,30.00,ENE,60,0.0,0.0,60,0.00,,SKC,0.00,VWS V13.01,2013-04-20 20:48:00,
2013-04-20 15:53:00,73.2,58.5,30.00,ENE,60,0.0,0.0,60,0.00,,SKC,0.00,VWS V13.01,2013-04-20 20:53:00,
2013-04-20 15:58:00,73.0,58.3,30.00,ENE,60,0.0,0.0,60,0.00,,SKC,0.00,VWS V13.01,2013-04-20 20:58:00,
2013-04-20 16:03:00,72.7,58.0,30.00,ENE,60,0.0,0.0,60,0.00,,SKC,0.00,VWS V13.01,2013-04-20 21:03:00,
2013-04-20 16:08:00,72.9,58.2,30.00,ENE,60,0.0,0.0,60,0.00,,SKC,0.00,VWS V13.01,2013-04-20 21:08:00,
2013-04-20 16:13:00,72.9,58.2,30.00,ENE,60,0.0,0.0,60,0.00,,SKC,0.00,VWS V13.01,2013-04-20 21:13:00,
2013-04-20 16:18:00,72.7,58.0,30.00,ENE,60,0.0,0.0,60,0.00,,SKC,0.00,VWS V13.01,2013-04-20 21:18:00,
2013-04-20 16:23:00,72.0,57.3,30.00,ENE,60,0.0,0.0,60,0.00,,SKC,0.00,VWS V13.01,2013-04-20 21:23:00,
2013-04-20 16:28:00,72.0,57.3,30.00,ENE,60,0.0,0.0,60,0.00,,SKC,0.00,VWS V13.01,2013-04-20 21:28:00,
2013-04-20 16:33:00,72.1,57.5,29.97,ENE,60,0.0,0.0,60,0.00,,SKC,0.00,VWS V13.01,2013-04-20 21:33:00,
2013-04-20 16:38:00,72.1,57.5,29.97,ENE,60,0.0,0.0,60,0.00,,SKC,0.00,VWS V13.01,2013-04-20 21:38:00,
2013-04-20 16:43:00,72.1,57.5,29.97,ENE,60,0.0,0.0,60,0.00,,SKC,0.00,VWS V13.01,2013-04-20 21:43:00,
2013-04-20 16:48:00,72.1,57.5,29.97,ENE,60,0.0,0.0,60,0.00,,SKC,0.00,VWS V13.01,2013-04-20 21:48:00,
2013-04-20 16:53:00,72.1,57.5,29.97,ENE,60,0.0,0.0,60,0.00,,SKC,0.00,VWS V13.01,2013-04-20 21:53:00,
2013-04-20 16:58:00,72.1,57.5,29.97,ENE,60,0.0,0.0,60,0.00,,SKC,0.00,VWS V13.01,2013-04-20 21:58:00,
2013-04-20 17:03:00,71.8,57.2,29.97,ENE,60,0.0,0.0,60,0.00,,SKC,0.00,VWS V13.01,2013-04-20 22:03:00,
2013-04-20 17:08:00,71.8,57.2,29.97,ENE,60,0.0,0.0,60,0.00,,SKC,0.00,VWS V13.01,2013-04-20 22:08:00,
2013-04-20 17:13:00,71.8,57.2,29.97,ENE,60,0.0,0.0,60,0.00,,SKC,0.00,VWS V13.01,2013-04-20 22:13:00,
2013-04-20 17:18:00,71.2,57.1,29.97,ENE,60,0.0,0.0,61,0.00,,SKC,0.00,VWS V13.01,2013-04-20 22:18:00,
2013-04-20 17:23:00,71.1,57.0,29.97,ENE,60,0.0,0.0,61,0.00,,SKC,0.00,VWS V13.01,2013-04-20 22:23:00,
2013-04-20 17:28:00,71.1,57.0,29.97,ENE,60,0.0,0.0,61,0.00,,SKC,0.00,VWS V13.01,2013-04-20 22:28:00,
2013-04-20 17:33:00,70.7,56.6,30.00,ENE,60,0.0,0.0,61,0.00,,SKC,0.00,VWS V13.01,2013-04-20 22:33:00,
2013-04-20 17:38:00,70.9,56.8,30.00,ENE,60,0.0,0.0,61,0.00,,SKC,0.00,VWS V13.01,2013-04-20 22:38:00,
2013-04-20 17:43:00,70.9,56.8,30.00,ENE,60,0.0,0.0,61,0.00,,SKC,0.00,VWS V13.01,2013-04-20 22:43:00,
2013-04-20 17:48:00,70.7,56.6,30.00,ENE,60,0.0,0.0,61,0.00,,SKC,0.00,VWS V13.01,2013-04-20 22:48:00,
2013-04-20 17:53:00,70.5,56.4,30.00,ENE,60,0.0,0.0,61,0.00,,SKC,0.00,VWS V13.01,2013-04-20 22:53:00,
2013-04-20 17:58:00,70.3,56.3,30.00,ENE,60,0.0,0.0,61,0.00,,SKC,0.00,VWS V13.01,2013-04-20 22:58:00,
2013-04-20 18:03:00,70.0,55.9,29.97,ENE,60,0.0,0.0,61,0.00,,SKC,0.00,VWS V13.01,2013-04-20 23:03:00,
2013-04-20 18:08:00,69.8,55.8,29.97,ENE,60,0.0,0.0,61,0.00,,SKC,0.00,VWS V13.01,2013-04-20 23:08:00,
2013-04-20 18:13:00,69.6,55.6,29.97,ENE,60,0.0,0.0,61,0.00,,SKC,0.00,VWS V13.01,2013-04-20 23:13:00,
2013-04-20 18:18:00,69.3,55.2,30.00,ENE,60,0.0,0.0,61,0.00,,SKC,0.00,VWS V13.01,2013-04-20 23:18:00,
2013-04-20 18:23:00,69.1,55.1,30.00,ENE,60,0.0,0.0,61,0.00,,SKC,0.00,VWS V13.01,2013-04-20 23:23:00,
2013-04-20 18:28:00,68.7,54.7,30.00,ENE,60,0.0,0.0,61,0.00,,SKC,0.00,VWS V13.01,2013-04-20 23:28:00,
2013-04-20 18:33:00,68.5,54.6,30.00,ENE,60,0.0,0.0,61,0.00,,SKC,0.00,VWS V13.01,2013-04-20 23:33:00,
2013-04-20 18:38:00,68.4,54.4,30.00,ENE,60,0.0,0.0,61,0.00,,SKC,0.00,VWS V13.01,2013-04-20 23:38:00,
2013-04-20 18:43:00,68.0,54.1,30.00,ENE,60,0.0,0.0,61,0.00,,SKC,0.00,VWS V13.01,2013-04-20 23:43:00,
2013-04-20 18:48:00,67.5,53.6,30.00,ENE,60,0.0,0.0,61,0.00,,SKC,0.00,VWS V13.01,2013-04-20 23:48:00,
2013-04-20 18:53:00,66.7,52.9,30.00,ENE,60,0.0,0.0,61,0.00,,SKC,0.00,VWS V13.01,2013-04-20 23:53:00,
2013-04-20 18:57:00,66.2,52.4,30.00,ENE,60,0.0,0.0,61,0.00,,SKC,0.00,VWS V13.01,2013-04-20 23:57:00,
2013-04-20 19:02:00,65.8,52.5,30.00,ENE,60,0.0,0.0,62,0.00,,SKC,0.00,VWS V13.01,2013-04-21 00:02:00,
2013-04-20 19:07:00,65.3,52.0,30.00,ENE,60,0.0,0.0,62,0.00,,SKC,0.00,VWS V13.01,2013-04-21 00:07:00,
2013-04-20 19:12:00,64.8,51.5,30.00,ENE,60,0.0,0.0,62,0.00,,SKC,0.00,VWS V13.01,2013-04-21 00:12:00,
2013-04-20 19:17:00,64.2,50.9,30.00,ENE,60,0.0,0.0,62,0.00,,SKC,0.00,VWS V13.01,2013-04-21 00:17:00,
2013-04-20 19:22:00,63.1,49.9,30.00,ENE,60,0.0,0.0,62,0.00,,SKC,0.00,VWS V13.01,2013-04-21 00:22:00,
2013-04-20 19:27:00,62.2,49.5,30.00,ENE,60,0.0,0.0,63,0.00,,SKC,0.00,VWS V13.01,2013-04-21 00:27:00,
2013-04-20 19:32:00,61.7,49.0,30.00,ENE,60,0.0,0.0,63,0.00,,SKC,0.00,VWS V13.01,2013-04-21 00:32:00,
2013-04-20 19:37:00,61.3,48.7,30.00,ENE,60,0.0,0.0,63,0.00,,SKC,0.00,VWS V13.01,2013-04-21 00:37:00,
2013-04-20 19:42:00,61.0,48.3,30.00,ENE,60,0.0,0.0,63,0.00,,SKC,0.00,VWS V13.01,2013-04-21 00:42:00,
2013-04-20 19:47:00,60.6,47.1,30.00,ENE,60,0.0,0.0,61,0.00,,SKC,0.00,VWS V13.01,2013-04-21 00:47:00,
2013-04-20 19:52:00,60.3,47.6,30.00,ENE,60,0.0,0.0,63,0.00,,SKC,0.00,VWS V13.01,2013-04-21 00:52:00,
2013-04-20 19:57:00,59.7,46.3,30.00,ENE,60,0.0,0.0,61,0.00,,SKC,0.00,VWS V13.01,2013-04-21 00:57:00,
2013-04-20 20:02:00,59.2,45.8,30.00,ENE,60,0.0,0.0,61,0.00,,SKC,0.00,VWS V13.01,2013-04-21 01:02:00,
2013-04-20 20:07:00,59.0,45.6,30.00,ENE,60,0.0,0.0,61,0.00,,SKC,0.00,VWS V13.01,2013-04-21 01:07:00,
2013-04-20 20:12:00,58.6,45.2,30.00,ENE,60,0.0,0.0,61,0.00,,SKC,0.00,VWS V13.01,2013-04-21 01:12:00,
2013-04-20 20:17:00,58.5,45.9,30.03,ENE,60,0.0,0.0,63,0.00,,SKC,0.00,VWS V13.01,2013-04-21 01:17:00,
2013-04-20 20:22:00,58.1,45.6,30.03,ENE,60,0.0,0.0,63,0.00,,SKC,0.00,VWS V13.01,2013-04-21 01:22:00,
2013-04-20 20:27:00,57.9,45.4,30.03,ENE,60,0.0,0.0,63,0.00,,SKC,0.00,VWS V13.01,2013-04-21 01:27:00,
2013-04-20 20:32:00,57.6,45.1,30.03,ENE,60,0.0,0.0,63,0.00,,SKC,0.00,VWS V13.01,2013-04-21 01:32:00,
2013-04-20 20:37:00,57.0,45.0,30.03,ENE,60,0.0,0.0,64,0.00,,SKC,0.00,VWS V13.01,2013-04-21 01:37:00,
2013-04-20 20:42:00,56.8,44.8,30.03,ENE,60,0.0,0.0,64,0.00,,SKC,0.00,VWS V13.01,2013-04-21 01:42:00,
2013-04-20 20:47:00,56.5,44.5,30.03,ENE,60,0.0,0.0,64,0.00,,SKC,0.00,VWS V13.01,2013-04-21 01:47:00,
2013-04-20 20:52:00,56.3,45.1,30.03,ENE,60,0.0,0.0,66,0.00,,SKC,0.00,VWS V13.01,2013-04-21 01:52:00,
2013-04-20 20:57:00,55.9,44.8,30.03,ENE,60,0.0,0.0,66,0.00,,SKC,0.00,VWS V13.01,2013-04-21 01:57:00,
2013-04-20 21:02:00,55.6,45.6,30.03,ENE,60,0.0,0.0,69,0.00,,SKC,0.00,VWS V13.01,2013-04-21 02:02:00,
2013-04-20 21:07:00,55.4,45.4,30.03,ENE,60,0.0,0.0,69,0.00,,SKC,0.00,VWS V13.01,2013-04-21 02:07:00,
2013-04-20 21:12:00,55.2,45.6,30.03,ENE,60,0.0,0.0,70,0.00,,SKC,0.00,VWS V13.01,2013-04-21 02:12:00,
2013-04-20 21:17:00,55.2,45.6,30.03,ENE,60,0.0,0.0,70,0.00,,SKC,0.00,VWS V13.01,2013-04-21 02:17:00,
2013-04-20 21:22:00,55.0,45.8,30.03,ENE,60,0.0,0.0,71,0.00,,SKC,0.00,VWS V13.01,2013-04-21 02:22:00,
2013-04-20 21:27:00,54.9,45.7,30.03,ENE,60,0.0,0.0,71,0.00,,SKC,0.00,VWS V13.01,2013-04-21 02:27:00,
2013-04-20 21:32:00,54.7,45.8,30.03,ENE,60,0.0,0.0,72,0.00,,SKC,0.00,VWS V13.01,2013-04-21 02:32:00,
2013-04-20 21:37:00,54.5,46.4,30.03,ENE,60,0.0,0.0,74,0.00,,SKC,0.00,VWS V13.01,2013-04-21 02:37:00,
2013-04-20 21:42:00,54.1,46.4,30.03,ENE,60,0.0,0.0,75,0.00,,SKC,0.00,VWS V13.01,2013-04-21 02:42:00,
2013-04-20 21:47:00,54.0,46.2,30.06,ENE,60,0.0,0.0,75,0.00,,SKC,0.00,VWS V13.01,2013-04-21 02:47:00,
2013-04-20 21:52:00,53.8,47.1,30.06,ENE,60,0.0,0.0,78,0.00,,SKC,0.00,VWS V13.01,2013-04-21 02:52:00,
2013-04-20 21:57:00,53.4,46.7,30.06,ENE,60,0.0,0.0,78,0.00,,SKC,0.00,VWS V13.01,2013-04-21 02:57:00,
2013-04-20 22:02:00,53.2,46.6,30.06,ENE,60,0.0,0.0,78,0.00,,SKC,0.00,VWS V13.01,2013-04-21 03:02:00,
2013-04-20 22:07:00,53.2,47.2,30.06,ENE,60,0.0,0.0,80,0.00,,SKC,0.00,VWS V13.01,2013-04-21 03:07:00,
2013-04-20 22:12:00,53.1,47.1,30.06,ENE,60,0.0,0.0,80,0.00,,SKC,0.00,VWS V13.01,2013-04-21 03:12:00,
2013-04-20 22:17:00,53.1,47.1,30.06,ENE,60,0.0,0.0,80,0.00,,SKC,0.00,VWS V13.01,2013-04-21 03:17:00,
2013-04-20 22:22:00,53.1,47.1,30.06,ENE,60,0.0,0.0,80,0.00,,SKC,0.00,VWS V13.01,2013-04-21 03:22:00,
2013-04-20 22:27:00,52.9,46.9,30.06,ENE,60,0.0,0.0,80,0.00,,SKC,0.00,VWS V13.01,2013-04-21 03:27:00,
2013-04-20 22:32:00,52.9,47.2,30.06,ENE,60,0.0,0.0,81,0.00,,SKC,0.00,VWS V13.01,2013-04-21 03:32:00,
2013-04-20 22:37:00,52.9,47.2,30.06,ENE,60,0.0,0.0,81,0.00,,SKC,0.00,VWS V13.01,2013-04-21 03:37:00,
2013-04-20 22:42:00,52.7,47.0,30.06,ENE,60,0.0,0.0,81,0.00,,SKC,0.00,VWS V13.01,2013-04-21 03:42:00,
2013-04-20 22:47:00,52.7,47.0,30.06,ENE,60,0.0,0.0,81,0.00,,SKC,0.00,VWS V13.01,2013-04-21 03:47:00,
2013-04-20 22:52:00,52.3,46.7,30.06,ENE,60,0.0,0.0,81,0.00,,SKC,0.00,VWS V13.01,2013-04-21 03:52:00,
2013-04-20 22:57:00,52.3,46.7,30.06,ENE,60,0.0,0.0,81,0.00,,SKC,0.00,VWS V13.01,2013-04-21 03:57:00,
2013-04-20 23:01:00,52.3,46.7,30.06,ENE,60,0.0,0.0,81,0.00,,SKC,0.00,VWS V13.01,2013-04-21 04:01:00,
2013-04-20 23:06:00,52.2,46.5,30.06,ENE,60,0.0,0.0,81,0.00,,SKC,0.00,VWS V13.01,2013-04-21 04:06:00,
2013-04-20 23:11:00,52.0,46.3,30.06,ENE,60,0.0,0.0,81,0.00,,SKC,0.00,VWS V13.01,2013-04-21 04:11:00,
2013-04-20 23:16:00,51.8,46.2,30.06,ENE,60,0.0,0.0,81,0.00,,SKC,0.00,VWS V13.01,2013-04-21 04:16:00,
2013-04-20 23:21:00,51.8,46.5,30.06,ENE,60,0.0,0.0,82,0.00,,SKC,0.00,VWS V13.01,2013-04-21 04:21:00,
2013-04-20 23:26:00,51.8,46.2,30.06,ENE,60,0.0,0.0,81,0.00,,SKC,0.00,VWS V13.01,2013-04-21 04:26:00,
2013-04-20 23:31:00,51.6,46.6,30.06,ENE,60,0.0,0.0,83,0.00,,SKC,0.00,VWS V13.01,2013-04-21 04:31:00,
2013-04-20 23:36:00,51.6,46.3,30.06,ENE,60,0.0,0.0,82,0.00,,SKC,0.00,VWS V13.01,2013-04-21 04:36:00,
2013-04-20 23:41:00,51.4,46.5,30.06,ENE,60,0.0,0.0,83,0.00,,SKC,0.00,VWS V13.01,2013-04-21 04:41:00,
2013-04-20 23:46:00,51.4,46.5,30.06,ENE,60,0.0,0.0,83,0.00,,SKC,0.00,VWS V13.01,2013-04-21 04:46:00,
2013-04-20 23:51:00,51.3,46.0,30.06,ENE,60,0.0,0.0,82,0.00,,SKC,0.00,VWS V13.01,2013-04-21 04:51:00,
2013-04-20 23:56:00,51.1,46.1,30.06,ENE,60,0.0,0.0,83,0.00,,SKC,0.00,VWS V13.01,2013-04-21 04:56:00,